M I D A S
Marine Information and Data Acquisition System
Tripno 1915 of the Zeeleeuw from 2010-07-07 06:55:27 to 2010-07-07 13:12:15
Back to CruiseResearch ActivitiesStationsMapUnderway DataData graphs

EquipmentUnitsComment
TimeDGPSUTC
LatitudeDGPSDM.mWGS84
LongitudeDGPSDM.mWGS84
HeadingGyrodeg 
SOGDGPSknotsSpeed over ground
COGDGPSdegCourse over ground
DepthEcho soundermeters200 kHz
Missing or incorrect values are displayed as -999
Navigation data collected by the RV Zeeleeuw from 2010-07-07 06:49:23 to 2010-07-07 13:18:48
Time Latitude Longitude Heading SOG COG Depth
2010-07-07 06:50:31 51°13.684 2°55.89 118.6 4.2 299 -999
2010-07-07 06:51:32 51°13.727 2°55.782 127.1 5.2 306 -999
2010-07-07 06:52:31 51°13.787 2°55.686 144.1 5.2 323 -999
2010-07-07 06:53:31 51°13.864 2°55.635 171.9 4.9 349 -999
2010-07-07 06:54:31 51°13.934 2°55.648 207.8 2.8 25 -999
2010-07-07 06:55:31 51°13.938 2°55.617 265.9 3.6 278 13.8
2010-07-07 06:56:29 51°14.008 2°55.527 330.9 7.6 329 12.9
2010-07-07 06:57:30 51°14.136 2°55.415 335.4 9.4 333 12.9
2010-07-07 06:59:12 51°14.409 2°55.177 331.7 12.3 330 12.7
2010-07-07 07:00:12 51°14.607 2°55.031 338.5 13.7 349 12.4
2010-07-07 07:01:11 51°14.805 2°55.201 36.4 14.7 35 11.2
2010-07-07 07:02:11 51°15.01 2°55.408 29.6 14.6 30 10.6
2010-07-07 07:03:12 51°15.224 2°55.607 29.6 14.6 30 10.2
2010-07-07 07:04:11 51°15.394 2°55.781 37.3 8.9 41 9.8
2010-07-07 07:05:12 51°15.484 2°55.889 18.6 5.5 28 9.8
2010-07-07 07:06:12 51°15.557 2°55.926 358.9 4.3 15 9.8
2010-07-07 07:07:11 51°15.624 2°55.942 349.4 4 10 10.1
2010-07-07 07:08:11 51°15.68 2°55.988 33 3.8 44 10.3
2010-07-07 07:09:12 51°15.716 2°56.07 54.1 3.7 54 10.2
2010-07-07 07:10:12 51°15.753 2°56.147 50.7 3.6 55 10.2
2010-07-07 07:11:12 51°15.788 2°56.217 37.5 3.3 48 10.3
2010-07-07 07:12:12 51°15.82 2°56.286 50.2 3.1 56 10.4
2010-07-07 07:13:12 51°15.853 2°56.352 41.3 3.2 51 10.3
2010-07-07 07:14:12 51°15.887 2°56.421 47.5 3.3 54 10.5
2010-07-07 07:15:12 51°15.916 2°56.498 62.4 3.4 62 10.5
2010-07-07 07:16:12 51°15.939 2°56.58 75.1 3.3 68 10.4
2010-07-07 07:17:12 51°15.96 2°56.661 71.9 3.3 68 10.2
2010-07-07 07:18:12 51°15.982 2°56.739 68.5 3.1 66 10.3
2010-07-07 07:19:12 51°16.004 2°56.813 65.6 3.1 63 10.2
2010-07-07 07:20:12 51°16.026 2°56.886 65.4 3 64 10.3
2010-07-07 07:21:12 51°16.047 2°56.956 67.3 2.9 66 10.4
2010-07-07 07:22:12 51°16.067 2°57.025 73.2 2.9 67 10.2
2010-07-07 07:23:12 51°16.085 2°57.096 76.2 2.9 69 10.4
2010-07-07 07:24:12 51°16.103 2°57.171 74.8 3.1 69 10.3
2010-07-07 07:25:12 51°16.123 2°57.247 68.2 3.1 65 10.4
2010-07-07 07:26:12 51°16.148 2°57.32 65.7 3.1 65 10.4
2010-07-07 07:27:12 51°16.163 2°57.398 90.1 3 76 10.4
2010-07-07 07:28:12 51°16.175 2°57.474 96 2.9 78 10.4
2010-07-07 07:29:12 51°16.182 2°57.557 104 3.5 88 10.2
2010-07-07 07:30:11 51°16.172 2°57.657 127.4 4.2 109 10.1
2010-07-07 07:31:12 51°16.14 2°57.745 153.7 3 126 9.9
2010-07-07 07:32:12 51°16.116 2°57.797 165.6 2.1 125 9.7
2010-07-07 07:33:12 51°16.08 2°57.831 188.7 4 180 9.7
2010-07-07 07:34:12 51°16.025 2°57.711 259.9 7.9 267 9.5
2010-07-07 07:35:12 51°16.101 2°57.459 298.8 12.2 305 9.8
2010-07-07 07:36:12 51°16.204 2°57.17 295.8 12.7 299 10.5
2010-07-07 07:37:11 51°16.295 2°56.874 290 12.6 293 11
2010-07-07 07:38:12 51°16.378 2°56.559 289.8 12.6 293 11.5
2010-07-07 07:39:11 51°16.465 2°56.262 294 12.6 299 11.7
2010-07-07 07:40:11 51°16.561 2°55.966 290.4 12.5 294 11.5
2010-07-07 07:41:12 51°16.653 2°55.66 293.6 12.6 298 12
2010-07-07 07:42:12 51°16.758 2°55.369 295.7 12.6 300 12
2010-07-07 07:43:12 51°16.86 2°55.078 292.4 12.5 296 11.7
2010-07-07 07:44:12 51°16.946 2°54.777 290.4 12.5 294 12.9
2010-07-07 07:45:12 51°17.031 2°54.474 290.1 12.4 294 12.7
2010-07-07 07:46:12 51°17.113 2°54.324 327.7 5.5 344 12.2
2010-07-07 07:47:12 51°17.191 2°54.361 32 4.9 40 10.3
2010-07-07 07:48:11 51°17.234 2°54.457 65.2 4.2 63 9.9
2010-07-07 07:49:12 51°17.262 2°54.552 74.5 3.8 64 9.9
2010-07-07 07:50:12 51°17.288 2°54.641 72.4 3.6 65 10.1
2010-07-07 07:51:12 51°17.316 2°54.72 61.8 3.3 57 9.7
2010-07-07 07:52:11 51°17.345 2°54.793 63.3 3.3 59 9.6
2010-07-07 07:53:12 51°17.371 2°54.868 71.6 3.1 62 9.7
2010-07-07 07:54:12 51°17.394 2°54.943 73.8 3.2 63 9.6
2010-07-07 07:55:12 51°17.416 2°55.018 77 3.1 66 9.5
2010-07-07 07:56:11 51°17.437 2°55.092 78.1 3.1 65 9.4
2010-07-07 07:57:12 51°17.461 2°55.165 70 3 62 9.5
2010-07-07 07:58:12 51°17.486 2°55.237 69.3 3.1 61 9.3
2010-07-07 07:59:12 51°17.51 2°55.31 73.3 3.1 62 9.3
2010-07-07 08:00:12 51°17.533 2°55.384 76.3 3.1 64 9.1
2010-07-07 08:01:12 51°17.555 2°55.458 78.6 3.1 66 9.4
2010-07-07 08:02:12 51°17.578 2°55.53 69.4 3 61 9.5
2010-07-07 08:03:11 51°17.604 2°55.598 61.5 3.1 57 8.9
2010-07-07 08:04:12 51°17.633 2°55.668 61.4 3.1 57 8.7
2010-07-07 08:05:12 51°17.662 2°55.739 60.4 3.2 56 8.7
2010-07-07 08:06:12 51°17.691 2°55.81 62.1 3.2 57 8.7
2010-07-07 08:07:12 51°17.718 2°55.882 71.3 3.2 61 8.7
2010-07-07 08:08:12 51°17.74 2°55.958 84.5 3.3 69 8.6
2010-07-07 08:09:12 51°17.758 2°56.047 88.6 3.6 74 8.7
2010-07-07 08:10:12 51°17.774 2°56.147 89.6 4.1 77 9.5
2010-07-07 08:11:11 51°17.777 2°56.248 118.6 3.7 97 10.6
2010-07-07 08:12:12 51°17.76 2°56.343 138.5 4 114 11.3
2010-07-07 08:13:12 51°17.719 2°56.425 161.2 3.3 136 11.6
2010-07-07 08:14:12 51°17.685 2°56.472 176.9 3.1 154 11.8
2010-07-07 08:15:12 51°17.629 2°56.423 240.3 4.9 248 12.1
2010-07-07 08:16:12 51°17.667 2°56.262 300.6 8.6 311 11.7
2010-07-07 08:17:12 51°17.807 2°56.188 341.4 8.3 349 8.9
2010-07-07 08:18:12 51°17.971 2°56.134 348.3 11.9 351 9
2010-07-07 08:19:11 51°18.187 2°56.086 350.7 13.8 352 9.9
2010-07-07 08:20:12 51°18.423 2°56.055 359.4 14.2 1 10.8
2010-07-07 08:21:12 51°18.659 2°56.072 1.5 14.2 3 11.5
2010-07-07 08:22:12 51°18.894 2°56.089 0.9 14.2 4 12.3
2010-07-07 08:23:12 51°19.129 2°56.103 1.1 14.1 3 12.5
2010-07-07 08:24:11 51°19.362 2°56.118 0.4 14.2 2 13
2010-07-07 08:25:12 51°19.602 2°56.131 0.3 14.1 2 13.4
2010-07-07 08:26:12 51°19.836 2°56.138 355.8 14.1 359 13.7
2010-07-07 08:27:12 51°20.07 2°56.121 354.8 14 356 14.2
2010-07-07 08:28:12 51°20.304 2°56.104 355.1 14.1 359 14.6
2010-07-07 08:29:12 51°20.537 2°56.086 354.7 14 356 14.9
2010-07-07 08:30:12 51°20.772 2°56.073 355.7 14.1 -999 15.5
2010-07-07 08:31:12 51°21.003 2°56.043 344.7 13.7 344 16.2
2010-07-07 08:32:12 51°21.216 2°55.917 332.6 13.6 336 17.5
2010-07-07 08:33:12 51°21.417 2°55.759 328.3 13.5 333 18.8
2010-07-07 08:34:12 51°21.619 2°55.597 328.9 13.6 333 19.2
2010-07-07 08:35:12 51°21.822 2°55.439 331.2 13.7 339 19.2
2010-07-07 08:36:12 51°22.048 2°55.354 349.4 14.2 354 19.4
2010-07-07 08:37:11 51°22.281 2°55.323 351.9 14.4 355 20.7
2010-07-07 08:38:12 51°22.526 2°55.309 356.1 14.5 359 20
2010-07-07 08:39:12 51°22.763 2°55.307 356.1 14.1 -999 20.5
2010-07-07 08:40:12 51°22.998 2°55.306 355.5 14.1 359 21.1
2010-07-07 08:41:12 51°23.229 2°55.275 346.4 13.9 350 20.7
2010-07-07 08:42:12 51°23.456 2°55.2 344.5 14.1 349 20.9
2010-07-07 08:43:12 51°23.688 2°55.142 350 14.2 354 21.5
2010-07-07 08:44:12 51°23.924 2°55.101 350.4 14.3 354 22.8
2010-07-07 08:45:11 51°24.157 2°55.059 351.4 14.5 354 23.1
2010-07-07 08:46:12 51°24.398 2°55.017 349.9 14.4 355 23.9
2010-07-07 08:47:12 51°24.636 2°54.975 350.1 14.4 353 23.3
2010-07-07 08:48:12 51°24.874 2°54.931 350.5 14.4 353 20
2010-07-07 08:49:12 51°25.112 2°54.89 350.8 14.3 353 21.2
2010-07-07 08:50:12 51°25.349 2°54.85 350.7 14.5 354 20.7
2010-07-07 08:51:12 51°25.587 2°54.807 349.9 14.3 352 20.6
2010-07-07 08:52:12 51°25.822 2°54.765 350.3 14.1 353 22.9
2010-07-07 08:53:12 51°26.055 2°54.72 350.3 14.1 353 25.8
2010-07-07 08:54:12 51°26.289 2°54.675 350.6 14.2 355 26.7
2010-07-07 08:55:12 51°26.524 2°54.631 350.5 14.3 355 26.7
2010-07-07 08:56:12 51°26.759 2°54.588 350 14.3 354 25.9
2010-07-07 08:57:12 51°26.995 2°54.547 350.1 14.4 353 28.7
2010-07-07 08:58:12 51°27.235 2°54.502 350.4 14.4 354 29.7
2010-07-07 08:59:12 51°27.472 2°54.459 350.4 14.4 353 29.4
2010-07-07 09:00:12 51°27.71 2°54.414 350.3 14.4 353 27.4
2010-07-07 09:01:12 51°27.948 2°54.368 349.9 14.3 352 22.2
2010-07-07 09:02:12 51°28.182 2°54.325 350.1 14.3 353 23.3
2010-07-07 09:03:12 51°28.42 2°54.277 350.4 14.4 352 23.7
2010-07-07 09:04:12 51°28.657 2°54.228 350.4 14.3 352 25.6
2010-07-07 09:05:12 51°28.892 2°54.177 350.8 14.3 353 26.9
2010-07-07 09:06:12 51°29.127 2°54.129 349.9 14.2 353 28.2
2010-07-07 09:07:12 51°29.361 2°54.08 350.8 14.2 352 29.3
2010-07-07 09:08:12 51°29.595 2°54.033 350.9 14.1 355 31.5
2010-07-07 09:09:12 51°29.828 2°53.984 350.2 14.2 354 32.1
2010-07-07 09:10:12 51°30.064 2°53.937 350 14.3 353 33
2010-07-07 09:11:12 51°30.3 2°53.886 350.7 14.4 354 34.7
2010-07-07 09:12:12 51°30.537 2°53.838 350.7 14.3 352 30.5
2010-07-07 09:13:12 51°30.762 2°53.734 335.4 14 339 23.6
2010-07-07 09:14:12 51°30.973 2°53.582 328 13.9 333 17.9
2010-07-07 09:15:12 51°31.182 2°53.42 328.7 13.8 335 21.8
2010-07-07 09:16:12 51°31.389 2°53.259 329.3 13.9 334 21.5
2010-07-07 09:17:12 51°31.577 2°53.059 316.3 13.5 322 23.1
2010-07-07 09:18:12 51°31.684 2°52.891 293.9 6.1 309 22
2010-07-07 09:19:12 51°31.729 2°52.796 281 3.6 308 23.1
2010-07-07 09:20:12 51°31.772 2°52.723 287 3.9 311 24
2010-07-07 09:21:12 51°31.807 2°52.638 273.9 3.7 296 23.2
2010-07-07 09:22:12 51°31.831 2°52.545 270.7 3.6 288 24.8
2010-07-07 09:23:12 51°31.834 2°52.459 252.2 3.3 266 25.3
2010-07-07 09:24:12 51°31.836 2°52.367 256.3 3.4 271 24.3
2010-07-07 09:25:12 51°31.826 2°52.293 240.9 2.4 253 25.8
2010-07-07 09:26:12 51°31.823 2°52.232 249.1 2.1 265 27.1
2010-07-07 09:27:12 51°31.816 2°52.187 248 1.7 269 25.9
2010-07-07 09:28:12 51°31.817 2°52.156 234.5 0.8 258 24.2
2010-07-07 09:29:12 51°31.81 2°52.133 227.1 1.1 224 24.4
2010-07-07 09:30:12 51°31.793 2°52.119 214.1 1 183 25.4
2010-07-07 09:31:12 51°31.786 2°52.109 239.8 1 257 25.3
2010-07-07 09:32:12 51°31.786 2°52.107 231.4 1.2 50 25.3
2010-07-07 09:33:12 51°31.804 2°52.133 245.3 1.7 40 25
2010-07-07 09:34:12 51°31.829 2°52.166 266.8 2.1 39 -999
2010-07-07 09:35:13 51°31.851 2°52.17 249.4 0.8 318 26.7
2010-07-07 09:36:12 51°31.837 2°52.153 217.8 1.9 206 26.1
2010-07-07 09:37:12 51°31.804 2°52.128 221.3 1.7 215 25
2010-07-07 09:38:12 51°31.791 2°52.114 222.9 1 217 25.2
2010-07-07 09:39:12 51°31.787 2°52.106 229.2 0.4 47 25.4
2010-07-07 09:40:12 51°31.794 2°52.119 234.2 0.9 42 25.4
2010-07-07 09:41:12 51°31.809 2°52.141 239.8 1.4 44 24.3
2010-07-07 09:42:12 51°31.828 2°52.17 251.4 1.8 43 26.3
2010-07-07 09:43:12 51°31.848 2°52.181 249.6 1.1 291 26.4
2010-07-07 09:44:12 51°31.824 2°52.148 216.4 2.7 206 24.7
2010-07-07 09:45:12 51°31.799 2°52.135 226 1.1 210 24.7
2010-07-07 09:46:12 51°31.786 2°52.112 230 0.9 222 25.4
2010-07-07 09:47:12 51°31.79 2°52.111 247.6 1 38 25.4
2010-07-07 09:48:12 51°31.811 2°52.134 272 1.9 35 23.9
2010-07-07 09:49:12 51°31.839 2°52.167 299.5 2.3 37 26.7
2010-07-07 09:50:12 51°31.872 2°52.194 301.2 2.3 5 25.3
2010-07-07 09:51:12 51°31.896 2°52.173 248.3 1.2 279 26.7
2010-07-07 09:52:12 51°31.872 2°52.145 215.3 2.6 203 25.8
2010-07-07 09:53:12 51°31.82 2°52.137 204 2.8 183 23.6
2010-07-07 09:54:12 51°31.79 2°52.121 224 1.4 216 24.7
2010-07-07 09:55:12 51°31.782 2°52.102 239.3 0.8 270 25.8
2010-07-07 09:56:12 51°31.799 2°52.122 271.9 2.6 58 25.6
2010-07-07 09:57:14 51°31.821 2°52.182 294.2 2.5 59 26.1
2010-07-07 09:58:13 51°31.842 2°52.237 306 2.3 59 25.6
2010-07-07 09:59:13 51°31.862 2°52.288 319.3 2.3 57 26.2
2010-07-07 10:00:11 51°31.882 2°52.337 333.7 2.2 56 24.6
2010-07-07 10:01:12 51°31.905 2°52.386 345.3 2.2 51 25.9
2010-07-07 10:02:11 51°31.929 2°52.431 349.5 2.3 50 22.2
2010-07-07 10:03:12 51°31.954 2°52.479 348.8 2.3 49 24.8
2010-07-07 10:04:11 51°31.98 2°52.525 344.3 2.3 49 26.1
2010-07-07 10:05:12 51°32.005 2°52.57 338.3 2.3 47 24.4
2010-07-07 10:06:11 51°32.03 2°52.613 331.3 2.4 46 25
2010-07-07 10:07:12 51°32.057 2°52.657 326.4 2.3 45 25.4
2010-07-07 10:08:12 51°32.084 2°52.7 324 2.3 38 22.2
2010-07-07 10:09:12 51°32.136 2°52.678 304.2 5.7 324 26.1
2010-07-07 10:10:12 51°32.22 2°52.592 317.3 4.2 346 24.4
2010-07-07 10:11:12 51°32.251 2°52.623 4.4 2.1 50 -999
2010-07-07 10:12:15 51°32.277 2°52.669 15.2 2.4 48 -999
2010-07-07 10:13:15 51°32.306 2°52.717 15.8 2.5 46 -999
2010-07-07 10:14:15 51°32.337 2°52.766 11.4 2.9 43 27.6
2010-07-07 10:15:15 51°32.38 2°52.814 2.6 3.2 30 28.4
2010-07-07 10:16:14 51°32.423 2°52.856 352.1 2.9 33 24.1
2010-07-07 10:17:13 51°32.499 2°52.907 19 7.7 30 25.8
2010-07-07 10:18:12 51°32.54 2°53.085 118.9 6.9 110 27.9
2010-07-07 10:19:11 51°32.469 2°53.126 211.6 4.2 202 26.4
2010-07-07 10:20:11 51°32.417 2°53.059 210.7 4.1 205 24.7
2010-07-07 10:21:12 51°32.363 2°52.979 232.2 4.5 236 25.8
2010-07-07 10:22:11 51°32.32 2°52.885 228.7 4.6 229 27.2
2010-07-07 10:23:12 51°32.278 2°52.781 231.6 4.5 231 26.8
2010-07-07 10:24:11 51°32.25 2°52.73 239.6 0.6 288 22.8
2010-07-07 10:25:12 51°32.269 2°52.759 289.5 1.9 49 26.2
2010-07-07 10:26:15 51°32.301 2°52.796 329.7 3.4 9 -999
2010-07-07 10:27:15 51°32.372 2°52.879 58.9 6.5 62 28
2010-07-07 10:28:14 51°32.35 2°53.107 130 10.2 120 26.5
2010-07-07 10:29:13 51°32.239 2°53.378 135.6 13.3 130 25.5
2010-07-07 10:30:12 51°32.086 2°53.628 141.7 13.4 136 23.8
2010-07-07 10:31:12 51°31.951 2°53.841 147.6 7.9 139 22.1
2010-07-07 10:32:12 51°31.881 2°53.897 188.3 2.9 168 20.9
2010-07-07 10:33:12 51°31.839 2°53.877 213.7 2.8 206 23.1
2010-07-07 10:34:12 51°31.79 2°53.846 210 3.3 205 19.7
2010-07-07 10:35:12 51°31.764 2°53.815 228.8 0.7 240 22
2010-07-07 10:36:12 51°31.775 2°53.828 244.6 1.1 36 22.1
2010-07-07 10:37:12 51°31.794 2°53.842 267.9 1.5 25 20.3
2010-07-07 10:38:12 51°31.82 2°53.863 294 1.8 29 23
2010-07-07 10:39:12 51°31.846 2°53.891 312.5 2 35 22.5
2010-07-07 10:40:12 51°31.873 2°53.923 328.2 2 39 19
2010-07-07 10:41:12 51°31.899 2°53.957 334.1 2 40 22.7
2010-07-07 10:42:12 51°31.924 2°53.993 335.1 2 43 22.8
2010-07-07 10:43:12 51°31.947 2°54.03 335.1 2 45 19.2
2010-07-07 10:44:12 51°31.971 2°54.07 335.3 2 47 22.8
2010-07-07 10:45:12 51°31.993 2°54.107 335.7 2.2 37 23.3
2010-07-07 10:46:12 51°32.057 2°54.164 46.4 5.7 48 22
2010-07-07 10:47:12 51°32.06 2°54.35 121.7 8.9 115 23.6
2010-07-07 10:48:12 51°31.953 2°54.539 139.7 10.2 132 22.7
2010-07-07 10:49:12 51°31.818 2°54.685 158.1 9.8 151 22
2010-07-07 10:50:12 51°31.676 2°54.82 157.2 9.9 151 19.5
2010-07-07 10:51:12 51°31.537 2°54.965 155.4 9.9 149 20.2
2010-07-07 10:52:12 51°31.396 2°55.104 155 9.9 149 19.5
2010-07-07 10:53:12 51°31.245 2°55.161 187.3 8.9 189 19.4
2010-07-07 10:54:12 51°31.17 2°55.062 234.2 4.5 238 18.8
2010-07-07 10:55:12 51°31.128 2°54.998 213.5 2.9 207 18.4
2010-07-07 10:56:12 51°31.092 2°54.938 232.3 3.6 235 16.7
2010-07-07 10:57:12 51°31.063 2°54.856 238.8 2.8 248 18
2010-07-07 10:58:13 51°31.073 2°54.865 274.1 2 65 -999
2010-07-07 10:59:15 51°31.09 2°54.894 278.6 1.3 353 18.9
2010-07-07 11:00:15 51°31.115 2°54.885 283.5 1.6 349 18.3
2010-07-07 11:01:15 51°31.142 2°54.881 293.4 2.2 341 19.2
2010-07-07 11:02:15 51°31.21 2°54.881 11 5.3 23 19.6
2010-07-07 11:03:13 51°31.285 2°55.079 70.3 13 67 19.4
2010-07-07 11:04:13 51°31.381 2°55.423 70.1 14.3 67 19.2
2010-07-07 11:05:12 51°31.491 2°55.761 63.8 14.8 60 17.6
2010-07-07 11:06:12 51°31.61 2°56.104 64.7 14.6 61 17.2
2010-07-07 11:07:12 51°31.726 2°56.443 65.4 14.5 62 17.9
2010-07-07 11:08:12 51°31.841 2°56.789 68.4 14.7 65 18.1
2010-07-07 11:09:12 51°31.95 2°57.137 64.7 14.6 62 17.7
2010-07-07 11:10:12 51°32.091 2°57.408 35 10.7 31 15.7
2010-07-07 11:11:12 51°32.225 2°57.471 357.2 7 2 17.5
2010-07-07 11:12:12 51°32.313 2°57.435 315.8 4.7 331 17.7
2010-07-07 11:13:12 51°32.368 2°57.366 293.3 3.8 313 19.2
2010-07-07 11:14:12 51°32.393 2°57.296 273.2 2.7 298 19.3
2010-07-07 11:15:12 51°32.407 2°57.227 259.2 2.6 277 19.6
2010-07-07 11:16:12 51°32.405 2°57.156 247.3 2.8 262 18.1
2010-07-07 11:17:12 51°32.392 2°57.083 240.8 2.6 251 17.1
2010-07-07 11:18:12 51°32.39 2°57.049 250.7 0.7 295 19.6
2010-07-07 11:19:12 51°32.4 2°57.039 258.7 0.9 349 18.6
2010-07-07 11:20:12 51°32.416 2°57.04 270.2 1.1 10 18.8
2010-07-07 11:21:12 51°32.436 2°57.044 281.7 1.7 333 19.4
2010-07-07 11:22:12 51°32.488 2°56.993 314.7 4.7 324 20.1
2010-07-07 11:23:12 51°32.552 2°56.893 295 5 301 21.6
2010-07-07 11:24:12 51°32.539 2°56.752 246.9 6.3 251 19.9
2010-07-07 11:25:12 51°32.485 2°56.595 236.7 7 238 22
2010-07-07 11:26:12 51°32.456 2°56.438 258 5.9 266 21.2
2010-07-07 11:27:12 51°32.475 2°56.316 284.7 2.5 309 20.7
2010-07-07 11:28:12 51°32.497 2°56.297 285.8 1.4 342 21.3
2010-07-07 11:29:12 51°32.52 2°56.281 284.5 1.4 340 22
2010-07-07 11:30:12 51°32.541 2°56.252 266.8 2 292 22.4
2010-07-07 11:31:12 51°32.545 2°56.178 260 3.5 271 20.3
2010-07-07 11:32:12 51°32.538 2°56.079 256.8 3.5 266 25
2010-07-07 11:33:12 51°32.546 2°56.05 259.8 0.9 334 25.6
2010-07-07 11:34:12 51°32.56 2°56.044 262.8 0.9 354 25.2
2010-07-07 11:35:12 51°32.575 2°56.046 267.2 1 10 24.8
2010-07-07 11:36:12 51°32.598 2°55.956 290 6.1 298 25.4
2010-07-07 11:37:12 51°32.678 2°55.806 314.1 8.1 317 24.7
2010-07-07 11:38:12 51°32.746 2°55.684 300.2 4.7 309 23.9
2010-07-07 11:39:12 51°32.785 2°55.616 291.8 2.8 315 24.6
2010-07-07 11:40:11 51°32.81 2°55.595 284.5 1.4 343 24.9
2010-07-07 11:41:12 51°32.832 2°55.59 283 1.3 359 23.7
2010-07-07 11:42:12 51°32.852 2°55.592 286.7 1.2 356 22.8
2010-07-07 11:43:12 51°32.835 2°55.485 229.2 6.5 225 24.2
2010-07-07 11:44:12 51°32.698 2°55.377 200.9 11.6 197 24.4
2010-07-07 11:45:11 51°32.504 2°55.31 192.9 12.3 191 20.9
2010-07-07 11:46:11 51°32.301 2°55.264 188.8 12.4 186 22
2010-07-07 11:47:11 51°32.095 2°55.225 189.3 12.5 187 19.6
2010-07-07 11:48:11 51°31.89 2°55.183 189.2 12.4 187 21.1
2010-07-07 11:49:12 51°31.682 2°55.137 189.5 12.4 187 20.3
2010-07-07 11:50:11 51°31.482 2°55.09 190.2 12.4 188 19.3
2010-07-07 11:51:11 51°31.278 2°55.043 189.7 12.4 189 18.5
2010-07-07 11:52:11 51°31.074 2°54.992 190 12.4 189 18.3
2010-07-07 11:53:11 51°30.87 2°54.94 189.8 12.4 190 18.3
2010-07-07 11:54:11 51°30.662 2°54.891 190.4 12.7 188 34.2
2010-07-07 11:55:12 51°30.447 2°54.839 190.2 12.9 188 34.2
2010-07-07 11:56:11 51°30.239 2°54.788 190 12.9 189 34.5
2010-07-07 11:57:11 51°30.028 2°54.73 189.9 12.8 190 33.2
2010-07-07 11:58:11 51°29.816 2°54.669 190.1 12.9 190 30.7
2010-07-07 11:59:11 51°29.604 2°54.606 190.6 12.9 191 29.3
2010-07-07 12:00:11 51°29.394 2°54.543 190.3 12.8 191 29.2
2010-07-07 12:01:11 51°29.184 2°54.48 190.4 13 191 27.2
2010-07-07 12:02:11 51°28.973 2°54.413 189.8 13 192 25.8
2010-07-07 12:03:11 51°28.758 2°54.351 189.9 13 189 25.3
2010-07-07 12:04:12 51°28.543 2°54.283 190.4 12.8 191 22.9
2010-07-07 12:05:11 51°28.336 2°54.218 190.2 13.1 190 21.6
2010-07-07 12:06:11 51°28.123 2°54.154 190.2 12.9 190 21.8
2010-07-07 12:07:11 51°27.914 2°54.094 190.2 12.6 189 21
2010-07-07 12:08:11 51°27.708 2°54.033 190.8 12.5 191 23.4
2010-07-07 12:09:11 51°27.5 2°53.971 190.2 12.8 191 23.9
2010-07-07 12:10:11 51°27.291 2°53.91 190.4 12.9 191 24.3
2010-07-07 12:11:12 51°27.075 2°53.846 190.1 13 190 23.5
2010-07-07 12:12:11 51°26.867 2°53.783 190.6 13 191 26.3
2010-07-07 12:13:12 51°26.652 2°53.715 190.8 12.8 191 31.6
2010-07-07 12:14:11 51°26.446 2°53.648 190 12.7 192 32.1
2010-07-07 12:15:12 51°26.233 2°53.571 190.5 12.9 193 31.4
2010-07-07 12:16:12 51°26.027 2°53.502 190.4 12.9 193 30
2010-07-07 12:17:11 51°25.818 2°53.424 190.5 13 193 26.9
2010-07-07 12:18:11 51°25.607 2°53.348 190.2 13 192 24.6
2010-07-07 12:19:12 51°25.39 2°53.279 185.7 13.1 188 22.9
2010-07-07 12:20:12 51°25.175 2°53.237 185.2 13.1 187 21.6
2010-07-07 12:21:12 51°24.959 2°53.196 185 12.9 187 17.7
2010-07-07 12:22:12 51°24.738 2°53.154 185.2 13.4 187 17.6
2010-07-07 12:23:11 51°24.519 2°53.113 185.1 13.5 187 18.1
2010-07-07 12:24:12 51°24.293 2°53.07 185 13.5 186 16.3
2010-07-07 12:25:11 51°24.075 2°53.029 185.8 13.3 187 17.1
2010-07-07 12:26:12 51°23.849 2°52.986 185 13.6 187 18.8
2010-07-07 12:27:11 51°23.628 2°52.945 185.3 13.6 187 20.4
2010-07-07 12:28:12 51°23.4 2°52.906 185.4 13.5 187 20.3
2010-07-07 12:29:12 51°23.177 2°52.871 185.3 13.4 186 21.2
2010-07-07 12:30:11 51°22.958 2°52.834 185 13.5 186 22.9
2010-07-07 12:31:12 51°22.73 2°52.798 185.6 13.5 186 22.6
2010-07-07 12:32:11 51°22.508 2°52.77 183 13.6 184 22.8
2010-07-07 12:33:11 51°22.281 2°52.745 183.4 13.6 185 23.5
2010-07-07 12:34:11 51°22.056 2°52.713 183.4 13.6 185 23.3
2010-07-07 12:35:11 51°21.831 2°52.683 183 13.6 185 21.1
2010-07-07 12:36:12 51°21.601 2°52.669 176.7 13.6 178 18.6
2010-07-07 12:37:12 51°21.375 2°52.685 176.4 13.6 179 16.8
2010-07-07 12:38:11 51°21.153 2°52.679 180.1 13.4 182 15.1
2010-07-07 12:39:12 51°20.927 2°52.662 180.7 13.3 183 14.4
2010-07-07 12:40:12 51°20.706 2°52.646 180.8 13.3 184 15
2010-07-07 12:41:11 51°20.486 2°52.628 180.4 13.5 183 15.7
2010-07-07 12:42:12 51°20.257 2°52.608 180.4 13.6 184 15.9
2010-07-07 12:43:11 51°20.033 2°52.588 180.1 13.7 183 15.8
2010-07-07 12:44:11 51°19.805 2°52.567 180.4 13.8 182 15.7
2010-07-07 12:45:11 51°19.577 2°52.545 180 13.8 183 14.9
2010-07-07 12:46:12 51°19.343 2°52.526 179.6 13.7 183 14.2
2010-07-07 12:47:12 51°19.114 2°52.503 180.7 13.7 184 13.2
2010-07-07 12:48:11 51°18.89 2°52.499 175.4 13.6 177 12.1
2010-07-07 12:49:12 51°18.66 2°52.51 174.9 13.7 178 11.4
2010-07-07 12:50:12 51°18.432 2°52.521 174.7 13.7 177 11
2010-07-07 12:51:12 51°18.204 2°52.531 175.5 13.7 177 10.6
2010-07-07 12:52:11 51°17.98 2°52.54 174.9 13.8 178 10.2
2010-07-07 12:53:11 51°17.751 2°52.548 175.1 13.9 178 9.9
2010-07-07 12:54:11 51°17.521 2°52.562 174 13.7 177 9.8
2010-07-07 12:55:12 51°17.291 2°52.606 168.7 13.6 170 9.4
2010-07-07 12:56:12 51°17.073 2°52.698 160.2 13.6 162 9.3
2010-07-07 12:57:11 51°16.86 2°52.801 161.1 13.5 165 8.7
2010-07-07 12:58:12 51°16.636 2°52.907 158.3 13.9 162 10.7
2010-07-07 12:59:12 51°16.42 2°53.035 156.1 13.8 160 11.4
2010-07-07 13:00:12 51°16.205 2°53.164 156.1 13.8 159 11.3
2010-07-07 13:01:11 51°16.002 2°53.311 150.1 13.6 154 11.2
2010-07-07 13:02:11 51°15.802 2°53.48 145.5 13.6 149 11.2
2010-07-07 13:03:12 51°15.612 2°53.684 142.5 13.6 146 10.5
2010-07-07 13:04:12 51°15.425 2°53.887 141.6 13.7 145 10.1
2010-07-07 13:05:12 51°15.245 2°54.099 140.3 13.5 143 9.5
2010-07-07 13:06:12 51°15.068 2°54.317 138.4 13.4 141 9.1
2010-07-07 13:07:12 51°14.886 2°54.533 139.8 13.8 144 10.3
2010-07-07 13:08:11 51°14.709 2°54.748 137.9 13.2 142 11
2010-07-07 13:09:12 51°14.544 2°54.94 140.3 11.8 146 11
2010-07-07 13:10:12 51°14.395 2°55.134 141.7 11.6 142 9.9
2010-07-07 13:11:12 51°14.252 2°55.299 143.8 9.9 145 9.8
2010-07-07 13:12:12 51°14.129 2°55.412 154.4 7.8 155 10.4
2010-07-07 13:13:12 51°14.015 2°55.493 155.7 7.5 156 10.2
2010-07-07 13:14:12 51°13.901 2°55.574 155.7 7.5 156 10.2
2010-07-07 13:15:11 51°13.802 2°55.654 147.3 6.2 146 11
2010-07-07 13:16:12 51°13.736 2°55.755 128.6 4.9 128 11
2010-07-07 13:17:22 51°13.69 2°55.87 120.1 3.7 119 7.7